GEOFB HKWJ-HKJK
Flight info
| Callsign | GEOFB |
|---|---|
| Flight time | 0h 46m |
| Altitude | 24000 |
| Route | AVESO T932 OKRIT |
| Aircraft | C750/M-SBDE3FGHRWXY/S |
Departure
| Time | 2026-04-26 17:32 |
|---|---|
| Airport | Wajir Airport (HKWJ) |
Arrival
| Time | 2026-04-26 18:18 |
|---|---|
| Airport | Jomo Kenyatta International Airport (HKJK) |
| Time | Latitude | Longitude | Altitude | Speed | Heading |
|---|---|---|---|---|---|
| 2026-04-26 17:26 | 1.73162 | 40.08893 | 841 ft | 0 kts | 58° |
| 2026-04-26 17:28 | 1.73163 | 40.08894 | 842 ft | 2 kts | 58° |
| 2026-04-26 17:29 | 1.73184 | 40.08936 | 839 ft | 9 kts | 66° |
| 2026-04-26 17:29 | 1.73201 | 40.08974 | 839 ft | 9 kts | 64° |
| 2026-04-26 17:29 | 1.73119 | 40.09076 | 843 ft | 25 kts | 147° |
| 2026-04-26 17:29 | 1.72937 | 40.09205 | 842 ft | 36 kts | 145° |
| 2026-04-26 17:30 | 1.72734 | 40.09339 | 834 ft | 34 kts | 146° |
| 2026-04-26 17:30 | 1.72543 | 40.09465 | 839 ft | 32 kts | 146° |
| 2026-04-26 17:30 | 1.72364 | 40.09587 | 837 ft | 28 kts | 145° |
| 2026-04-26 17:30 | 1.72208 | 40.09691 | 836 ft | 26 kts | 134° |
| 2026-04-26 17:31 | 1.72251 | 40.09815 | 834 ft | 20 kts | 51° |
| 2026-04-26 17:31 | 1.72355 | 40.09790 | 834 ft | 40 kts | 326° |
| 2026-04-26 17:31 | 1.72900 | 40.09421 | 842 ft | 143 kts | 327° |
| 2026-04-26 17:31 | 1.73876 | 40.08789 | 958 ft | 183 kts | 327° |
| 2026-04-26 17:32 | 1.74924 | 40.08112 | 1711 ft | 177 kts | 328° |
| 2026-04-26 17:32 | 1.75977 | 40.07393 | 2324 ft | 186 kts | 326° |
| 2026-04-26 17:32 | 1.77098 | 40.06620 | 2777 ft | 207 kts | 325° |
| 2026-04-26 17:32 | 1.77963 | 40.05354 | 2968 ft | 243 kts | 283° |
| 2026-04-26 17:33 | 1.77777 | 40.03604 | 3366 ft | 270 kts | 244° |
| 2026-04-26 17:33 | 1.76504 | 40.02285 | 4395 ft | 262 kts | 211° |
| 2026-04-26 17:33 | 1.74910 | 40.01407 | 5445 ft | 264 kts | 206° |
| 2026-04-26 17:34 | 1.71650 | 39.99556 | 7224 ft | 275 kts | 211° |
| 2026-04-26 17:34 | 1.70041 | 39.98534 | 8157 ft | 281 kts | 211° |
| 2026-04-26 17:34 | 1.68356 | 39.97503 | 9123 ft | 288 kts | 210° |
| 2026-04-26 17:34 | 1.66616 | 39.96457 | 9980 ft | 296 kts | 210° |
| 2026-04-26 17:35 | 1.64809 | 39.95359 | 10452 ft | 316 kts | 211° |
| 2026-04-26 17:35 | 1.62879 | 39.94177 | 10618 ft | 343 kts | 211° |
| 2026-04-26 17:35 | 1.60738 | 39.92869 | 10863 ft | 364 kts | 211° |
| 2026-04-26 17:35 | 1.58601 | 39.91567 | 11656 ft | 366 kts | 211° |
| 2026-04-26 17:36 | 1.56414 | 39.90235 | 12365 ft | 371 kts | 211° |
| 2026-04-26 17:36 | 1.54169 | 39.88865 | 13093 ft | 375 kts | 211° |
| 2026-04-26 17:36 | 1.51931 | 39.87500 | 13774 ft | 380 kts | 211° |
| 2026-04-26 17:36 | 1.49695 | 39.86137 | 14391 ft | 384 kts | 211° |
| 2026-04-26 17:37 | 1.47372 | 39.84721 | 15009 ft | 388 kts | 211° |
| 2026-04-26 17:37 | 1.45088 | 39.83328 | 15616 ft | 392 kts | 210° |
| 2026-04-26 17:37 | 1.42744 | 39.81900 | 16244 ft | 396 kts | 210° |
| 2026-04-26 17:38 | 1.38000 | 39.79007 | 17593 ft | 404 kts | 210° |
| 2026-04-26 17:38 | 1.35598 | 39.77543 | 18271 ft | 408 kts | 210° |
| 2026-04-26 17:38 | 1.33156 | 39.76055 | 18845 ft | 413 kts | 210° |
| 2026-04-26 17:38 | 1.30682 | 39.74547 | 19429 ft | 418 kts | 210° |
| 2026-04-26 17:39 | 1.28217 | 39.73045 | 20010 ft | 423 kts | 210° |
| 2026-04-26 17:39 | 1.25652 | 39.71481 | 20615 ft | 429 kts | 210° |
| 2026-04-26 17:39 | 1.23127 | 39.69941 | 21194 ft | 434 kts | 210° |
| 2026-04-26 17:39 | 1.20531 | 39.68359 | 21792 ft | 440 kts | 210° |
| 2026-04-26 17:40 | 1.17902 | 39.66757 | 22386 ft | 445 kts | 210° |
| 2026-04-26 17:40 | 1.16106 | 39.65663 | 22765 ft | 450 kts | 210° |
| 2026-04-26 17:40 | 1.12539 | 39.63488 | 23520 ft | 454 kts | 210° |
| 2026-04-26 17:40 | 1.09939 | 39.61901 | 23899 ft | 433 kts | 210° |
| 2026-04-26 17:41 | 1.07328 | 39.60311 | 23917 ft | 440 kts | 210° |
| 2026-04-26 17:41 | 1.04715 | 39.58721 | 23916 ft | 440 kts | 210° |
| 2026-04-26 17:41 | 1.02098 | 39.57125 | 23909 ft | 441 kts | 210° |
| 2026-04-26 17:41 | 0.99515 | 39.55550 | 23911 ft | 442 kts | 210° |
| 2026-04-26 17:42 | 0.96909 | 39.53918 | 23902 ft | 442 kts | 213° |
| 2026-04-26 17:42 | 0.94635 | 39.51865 | 23916 ft | 443 kts | 225° |
| 2026-04-26 17:42 | 0.92476 | 39.49647 | 23926 ft | 444 kts | 226° |
| 2026-04-26 17:42 | 0.90327 | 39.47442 | 23927 ft | 444 kts | 225° |
| 2026-04-26 17:43 | 0.88143 | 39.45262 | 23929 ft | 443 kts | 224° |
| 2026-04-26 17:43 | 0.85970 | 39.43099 | 23928 ft | 442 kts | 225° |
| 2026-04-26 17:43 | 0.83807 | 39.40911 | 23930 ft | 442 kts | 225° |
| 2026-04-26 17:43 | 0.81649 | 39.38718 | 23927 ft | 442 kts | 225° |
| 2026-04-26 17:44 | 0.79480 | 39.36537 | 23923 ft | 442 kts | 225° |
| 2026-04-26 17:44 | 0.77311 | 39.34361 | 23929 ft | 442 kts | 225° |
| 2026-04-26 17:44 | 0.75174 | 39.32207 | 23929 ft | 442 kts | 225° |
| 2026-04-26 17:44 | 0.73010 | 39.30021 | 23929 ft | 442 kts | 225° |
| 2026-04-26 17:45 | 0.70844 | 39.27838 | 23926 ft | 442 kts | 225° |
| 2026-04-26 17:45 | 0.68674 | 39.25655 | 23923 ft | 442 kts | 225° |
| 2026-04-26 17:45 | 0.66510 | 39.23475 | 23926 ft | 442 kts | 225° |
| 2026-04-26 17:45 | 0.64342 | 39.21289 | 23926 ft | 442 kts | 225° |
| 2026-04-26 17:46 | 0.62180 | 39.19109 | 23924 ft | 442 kts | 225° |
| 2026-04-26 17:46 | 0.60009 | 39.16924 | 23924 ft | 442 kts | 225° |
| 2026-04-26 17:46 | 0.57843 | 39.14741 | 23930 ft | 442 kts | 225° |
| 2026-04-26 17:46 | 0.55711 | 39.12593 | 23930 ft | 441 kts | 225° |
| 2026-04-26 17:47 | 0.53550 | 39.10416 | 23929 ft | 442 kts | 225° |
| 2026-04-26 17:47 | 0.52089 | 39.08944 | 23929 ft | 442 kts | 225° |
| 2026-04-26 17:47 | 0.49226 | 39.06060 | 23929 ft | 442 kts | 225° |
| 2026-04-26 17:47 | 0.47062 | 39.03880 | 23932 ft | 442 kts | 225° |
| 2026-04-26 17:48 | 0.44902 | 39.01704 | 23934 ft | 442 kts | 225° |
| 2026-04-26 17:48 | 0.42737 | 38.99523 | 23938 ft | 441 kts | 225° |
| 2026-04-26 17:48 | 0.40577 | 38.97347 | 23938 ft | 441 kts | 225° |
| 2026-04-26 17:48 | 0.38413 | 38.95166 | 23938 ft | 441 kts | 225° |
| 2026-04-26 17:49 | 0.36279 | 38.93016 | 23936 ft | 442 kts | 225° |
| 2026-04-26 17:49 | 0.34088 | 38.90809 | 23936 ft | 442 kts | 225° |
| 2026-04-26 17:49 | 0.31921 | 38.88626 | 23936 ft | 442 kts | 225° |
| 2026-04-26 17:49 | 0.29792 | 38.86481 | 23933 ft | 442 kts | 225° |
| 2026-04-26 17:50 | 0.27623 | 38.84296 | 23935 ft | 442 kts | 225° |
| 2026-04-26 17:50 | 0.25460 | 38.82117 | 23941 ft | 442 kts | 225° |
| 2026-04-26 17:50 | 0.23294 | 38.79935 | 23941 ft | 442 kts | 225° |
| 2026-04-26 17:50 | 0.21130 | 38.77756 | 23941 ft | 442 kts | 225° |
| 2026-04-26 17:51 | 0.18965 | 38.75575 | 23936 ft | 442 kts | 225° |
| 2026-04-26 17:51 | 0.16801 | 38.73395 | 23939 ft | 442 kts | 225° |
| 2026-04-26 17:51 | 0.14636 | 38.71214 | 23932 ft | 442 kts | 225° |
| 2026-04-26 17:51 | 0.12466 | 38.69028 | 23938 ft | 442 kts | 225° |
| 2026-04-26 17:52 | 0.10305 | 38.66851 | 23939 ft | 442 kts | 225° |
| 2026-04-26 17:52 | 0.08165 | 38.64695 | 23941 ft | 442 kts | 225° |
| 2026-04-26 17:52 | 0.06006 | 38.62521 | 23942 ft | 443 kts | 225° |
| 2026-04-26 17:52 | 0.03832 | 38.60331 | 23942 ft | 443 kts | 225° |
| 2026-04-26 17:53 | 0.01664 | 38.58146 | 23945 ft | 443 kts | 225° |
| 2026-04-26 17:53 | -0.00503 | 38.55964 | 23947 ft | 443 kts | 225° |
| 2026-04-26 17:53 | -0.02668 | 38.53783 | 23945 ft | 440 kts | 225° |
| 2026-04-26 17:54 | -0.06983 | 38.49436 | 23942 ft | 440 kts | 225° |
| 2026-04-26 17:54 | -0.09139 | 38.47264 | 23944 ft | 440 kts | 225° |
| 2026-04-26 17:54 | -0.11295 | 38.45092 | 23947 ft | 441 kts | 225° |
| 2026-04-26 17:54 | -0.13455 | 38.42916 | 23947 ft | 440 kts | 225° |
| 2026-04-26 17:55 | -0.15613 | 38.40743 | 23946 ft | 441 kts | 225° |
| 2026-04-26 17:55 | -0.17741 | 38.38600 | 23950 ft | 441 kts | 225° |
| 2026-04-26 17:55 | -0.19898 | 38.36426 | 23958 ft | 440 kts | 225° |
| 2026-04-26 17:55 | -0.22055 | 38.34254 | 23957 ft | 441 kts | 225° |
| 2026-04-26 17:56 | -0.24212 | 38.32079 | 23955 ft | 441 kts | 225° |
| 2026-04-26 17:56 | -0.28609 | 38.27651 | 23956 ft | 441 kts | 225° |
| 2026-04-26 17:57 | -0.33675 | 38.22547 | 23964 ft | 441 kts | 225° |
| 2026-04-26 17:57 | -0.35853 | 38.20353 | 23967 ft | 452 kts | 225° |
| 2026-04-26 17:57 | -0.38911 | 38.17272 | 23963 ft | 423 kts | 225° |
| 2026-04-26 17:57 | -0.41019 | 38.15147 | 23958 ft | 434 kts | 225° |
| 2026-04-26 17:58 | -0.49995 | 38.06106 | 23982 ft | 440 kts | 225° |
| 2026-04-26 17:59 | -0.54293 | 38.01777 | 23022 ft | 448 kts | 225° |
| 2026-04-26 17:59 | -0.56478 | 37.99576 | 22633 ft | 446 kts | 225° |
| 2026-04-26 17:59 | -0.58664 | 37.97372 | 22237 ft | 445 kts | 225° |
| 2026-04-26 17:59 | -0.60839 | 37.95180 | 21850 ft | 442 kts | 225° |
| 2026-04-26 18:00 | -0.62991 | 37.93011 | 21460 ft | 438 kts | 225° |
| 2026-04-26 18:00 | -0.65133 | 37.90855 | 21078 ft | 436 kts | 225° |
| 2026-04-26 18:00 | -0.67258 | 37.88714 | 20717 ft | 433 kts | 225° |
| 2026-04-26 18:00 | -0.69346 | 37.86612 | 20337 ft | 430 kts | 225° |
| 2026-04-26 18:01 | -0.71406 | 37.84535 | 19965 ft | 412 kts | 225° |
| 2026-04-26 18:01 | -0.73382 | 37.82542 | 19904 ft | 396 kts | 225° |
| 2026-04-26 18:01 | -0.75342 | 37.80568 | 19905 ft | 403 kts | 225° |
| 2026-04-26 18:01 | -0.77320 | 37.78576 | 19908 ft | 405 kts | 225° |
| 2026-04-26 18:02 | -0.79303 | 37.76577 | 19911 ft | 406 kts | 225° |
| 2026-04-26 18:02 | -0.79976 | 37.75899 | 19913 ft | 406 kts | 225° |
| 2026-04-26 18:02 | -0.83282 | 37.72568 | 19917 ft | 406 kts | 225° |
| 2026-04-26 18:02 | -0.85270 | 37.70565 | 19928 ft | 406 kts | 225° |
| 2026-04-26 18:03 | -0.87259 | 37.68560 | 19926 ft | 406 kts | 225° |
| 2026-04-26 18:03 | -0.89124 | 37.66453 | 19907 ft | 406 kts | 232° |
| 2026-04-26 18:03 | -0.90780 | 37.64212 | 19920 ft | 407 kts | 233° |
| 2026-04-26 18:03 | -0.92485 | 37.61902 | 19725 ft | 420 kts | 233° |
| 2026-04-26 18:04 | -0.94236 | 37.59575 | 19389 ft | 419 kts | 233° |
| 2026-04-26 18:04 | -0.95994 | 37.57246 | 19054 ft | 419 kts | 233° |
| 2026-04-26 18:04 | -0.97729 | 37.54922 | 18725 ft | 417 kts | 233° |
| 2026-04-26 18:05 | -1.01182 | 37.50294 | 18034 ft | 413 kts | 233° |
| 2026-04-26 18:05 | -1.02891 | 37.48016 | 17646 ft | 409 kts | 233° |
| 2026-04-26 18:05 | -1.04594 | 37.45738 | 17273 ft | 406 kts | 233° |
| 2026-04-26 18:05 | -1.06280 | 37.43481 | 16902 ft | 404 kts | 233° |
| 2026-04-26 18:06 | -1.07955 | 37.41241 | 16548 ft | 402 kts | 233° |
| 2026-04-26 18:06 | -1.09623 | 37.39013 | 16181 ft | 398 kts | 233° |
| 2026-04-26 18:06 | -1.11253 | 37.36832 | 15829 ft | 396 kts | 233° |
| 2026-04-26 18:06 | -1.12897 | 37.34633 | 15475 ft | 395 kts | 233° |
| 2026-04-26 18:07 | -1.14529 | 37.32451 | 15131 ft | 391 kts | 233° |
| 2026-04-26 18:07 | -1.16149 | 37.30284 | 14784 ft | 389 kts | 233° |
| 2026-04-26 18:07 | -1.17771 | 37.28118 | 14441 ft | 388 kts | 233° |
| 2026-04-26 18:07 | -1.18838 | 37.26696 | 14217 ft | 386 kts | 233° |
| 2026-04-26 18:08 | -1.20973 | 37.23836 | 13775 ft | 380 kts | 233° |
| 2026-04-26 18:08 | -1.22553 | 37.21718 | 13413 ft | 379 kts | 232° |
| 2026-04-26 18:08 | -1.24128 | 37.19613 | 13049 ft | 377 kts | 232° |
| 2026-04-26 18:08 | -1.25670 | 37.17552 | 12692 ft | 374 kts | 233° |
| 2026-04-26 18:09 | -1.27219 | 37.15475 | 12331 ft | 372 kts | 233° |
| 2026-04-26 18:09 | -1.28761 | 37.13413 | 11983 ft | 370 kts | 232° |
| 2026-04-26 18:09 | -1.30298 | 37.11360 | 11633 ft | 367 kts | 232° |
| 2026-04-26 18:09 | -1.31817 | 37.09329 | 11285 ft | 364 kts | 233° |
| 2026-04-26 18:10 | -1.33300 | 37.07343 | 10942 ft | 345 kts | 232° |
| 2026-04-26 18:10 | -1.34691 | 37.05480 | 10589 ft | 324 kts | 232° |
| 2026-04-26 18:10 | -1.36003 | 37.03726 | 10228 ft | 308 kts | 233° |
| 2026-04-26 18:10 | -1.37245 | 37.02066 | 10166 ft | 290 kts | 233° |
| 2026-04-26 18:11 | -1.38466 | 37.00432 | 10170 ft | 297 kts | 232° |
| 2026-04-26 18:11 | -1.39702 | 36.98779 | 10169 ft | 300 kts | 232° |
| 2026-04-26 18:11 | -1.40957 | 36.97100 | 10086 ft | 301 kts | 232° |
| 2026-04-26 18:11 | -1.42194 | 36.95445 | 10082 ft | 302 kts | 232° |
| 2026-04-26 18:12 | -1.43489 | 36.93713 | 10106 ft | 328 kts | 232° |
| 2026-04-26 18:12 | -1.44820 | 36.91932 | 10098 ft | 306 kts | 232° |
| 2026-04-26 18:12 | -1.46067 | 36.90259 | 10090 ft | 303 kts | 232° |
| 2026-04-26 18:12 | -1.47303 | 36.88606 | 10081 ft | 294 kts | 232° |
| 2026-04-26 18:13 | -1.48585 | 36.86891 | 9779 ft | 321 kts | 233° |
| 2026-04-26 18:13 | -1.49543 | 36.84953 | 9239 ft | 307 kts | 256° |
| 2026-04-26 18:13 | -1.49586 | 36.82870 | 8903 ft | 297 kts | 281° |
| 2026-04-26 18:13 | -1.49153 | 36.81603 | 8920 ft | 289 kts | 296° |
| 2026-04-26 18:14 | -1.47386 | 36.79575 | 8934 ft | 287 kts | 326° |
| 2026-04-26 18:14 | -1.45702 | 36.78845 | 8810 ft | 253 kts | 349° |
| 2026-04-26 18:14 | -1.44007 | 36.78859 | 8439 ft | 239 kts | 14° |
| 2026-04-26 18:14 | -1.42552 | 36.79593 | 8109 ft | 231 kts | 42° |
| 2026-04-26 18:15 | -1.41561 | 36.80798 | 7858 ft | 228 kts | 52° |
| 2026-04-26 18:15 | -1.40381 | 36.81891 | 7740 ft | 235 kts | 41° |
| 2026-04-26 18:15 | -1.39149 | 36.82947 | 7447 ft | 233 kts | 47° |
| 2026-04-26 18:15 | -1.38142 | 36.84208 | 7165 ft | 229 kts | 56° |
| 2026-04-26 18:16 | -1.37300 | 36.85402 | 6900 ft | 193 kts | 56° |
| 2026-04-26 18:16 | -1.35780 | 36.87495 | 6410 ft | 186 kts | 54° |
| 2026-04-26 18:16 | -1.35022 | 36.88528 | 6175 ft | 186 kts | 54° |
| 2026-04-26 18:17 | -1.34259 | 36.89575 | 5918 ft | 182 kts | 54° |
| 2026-04-26 18:17 | -1.33602 | 36.90482 | 5670 ft | 144 kts | 55° |
| 2026-04-26 18:17 | -1.33036 | 36.91259 | 5471 ft | 134 kts | 55° |
| 2026-04-26 18:17 | -1.32501 | 36.91990 | 5341 ft | 123 kts | 55° |
| 2026-04-26 18:18 | -1.32047 | 36.92609 | 5328 ft | 90 kts | 53° |
| 2026-04-26 18:18 | -1.31818 | 36.92926 | 5322 ft | 42 kts | 50° |
| 2026-04-26 18:18 | -1.31707 | 36.92940 | 5321 ft | 13 kts | 323° |
| 2026-04-26 18:18 | -1.31687 | 36.92926 | 5316 ft | 0 kts | 323° |
| 2026-04-26 18:19 | -1.31656 | 36.92904 | 5319 ft | 10 kts | 325° |
| 2026-04-26 18:19 | -1.31588 | 36.92861 | 5318 ft | 14 kts | 330° |
| 2026-04-26 18:19 | -1.31541 | 36.92833 | 5318 ft | 0 kts | 328° |
| 2026-04-26 18:19 | -1.31558 | 36.92793 | 5319 ft | 15 kts | 236° |
| 2026-04-26 18:20 | -1.31572 | 36.92776 | 5318 ft | 0 kts | 229° |